Time;durP1;ratioP1;P1;durP2;ratioP2;P2;SDS_P1;SDS_P2;PMS_P1;PMS_P2;Temp;Humidity;BMP_temperature;BMP_pressure;BME280_temperature;BME280_humidity;BME280_pressure;Samples;Min_cycle;Max_cycle;Signal;HPM_P1;HPM_P2
2021/10/01 00:01:12;;;;;;;12.60;6.82;;;;;;;16.49;72.23;99466.53;5132470;28;20067;-94
2021/10/01 00:03:38;;;;;;;14.10;7.25;;;;;;;16.47;72.22;99446.94;5132483;28;20122;-93
2021/10/01 00:06:04;;;;;;;17.13;7.30;;;;;;;16.52;72.09;99452.97;5133090;28;20066;-92
2021/10/01 00:08:31;;;;;;;10.77;6.40;;;;;;;16.49;71.50;99437.88;5133204;28;20039;-94
2021/10/01 00:10:59;;;;;;;12.02;6.38;;;;;;;16.48;70.99;99438.81;5132687;28;20430;-93
2021/10/01 00:13:25;;;;;;;13.35;6.13;;;;;;;16.56;71.02;99446.53;5132916;28;20031;-92
2021/10/01 00:15:52;;;;;;;12.95;6.75;;;;;;;16.60;71.35;99464.28;5131810;28;20100;-93
2021/10/01 00:18:18;;;;;;;12.75;6.13;;;;;;;16.52;71.44;99455.66;5132470;28;20043;-93
2021/10/01 00:20:44;;;;;;;19.65;7.07;;;;;;;16.51;71.17;99453.94;5133024;28;20043;-93
2021/10/01 00:23:10;;;;;;;14.52;6.80;;;;;;;16.48;70.84;99441.50;5133196;28;20143;-94
2021/10/01 00:25:36;;;;;;;11.48;6.45;;;;;;;16.45;71.03;99443.44;5133425;28;20039;-94
2021/10/01 00:28:03;;;;;;;14.45;6.65;;;;;;;16.38;71.27;99441.00;5133248;28;20054;-94
2021/10/01 00:30:29;;;;;;;12.52;6.63;;;;;;;16.45;71.09;99448.81;5131884;28;20427;-91
2021/10/01 00:32:58;;;;;;;13.80;6.32;;;;;;;16.38;71.06;99432.94;5132953;28;20119;-94
2021/10/01 00:35:24;;;;;;;14.05;6.18;;;;;;;16.41;70.75;99439.97;5132356;28;20032;-93
2021/10/01 00:37:49;;;;;;;14.07;6.68;;;;;;;16.43;70.76;99438.13;5132430;28;20381;-92
2021/10/01 00:40:15;;;;;;;15.20;7.50;;;;;;;16.47;70.87;99454.97;5132786;28;20039;-93
2021/10/01 00:42:41;;;;;;;11.63;6.15;;;;;;;16.36;70.98;99436.63;5132396;28;20044;-94
2021/10/01 00:45:09;;;;;;;15.38;6.28;;;;;;;16.40;71.15;99451.66;5131575;28;20442;-94
2021/10/01 00:47:36;;;;;;;12.45;6.43;;;;;;;16.26;71.33;99433.41;5133703;28;20049;-93
2021/10/01 00:50:02;;;;;;;11.88;6.25;;;;;;;16.21;71.35;99430.06;5132661;28;20039;-93
2021/10/01 00:52:28;;;;;;;11.88;5.75;;;;;;;16.32;70.90;99435.84;5132019;28;20122;-94
2021/10/01 00:54:54;;;;;;;14.20;6.95;;;;;;;16.23;70.71;99414.75;5132178;28;20119;-93
2021/10/01 00:57:20;;;;;;;12.88;6.63;;;;;;;16.35;70.56;99422.34;5132687;28;20039;-93
2021/10/01 00:59:46;;;;;;;11.30;6.25;;;;;;;16.33;70.82;99437.63;5132322;28;20126;-93
2021/10/01 01:02:14;;;;;;;12.35;5.82;;;;;;;16.33;70.64;99431.34;5131930;28;20109;-92
2021/10/01 01:04:44;;;;;;;12.75;5.50;;;;;;;16.21;70.93;99417.50;5120262;28;20460;-93
2021/10/01 01:07:17;;;;;;;13.27;6.03;;;;;;;16.20;70.94;99426.50;5118200;28;20437;-93
2021/10/01 01:09:50;;;;;;;15.85;6.10;;;;;;;16.16;71.14;99419.50;5117454;28;20050;-93
2021/10/01 01:12:29;;;;;;;12.98;5.75;;;;;;;16.08;71.42;99423.41;5117719;28;20031;-93
2021/10/01 01:15:01;;;;;;;10.93;5.32;;;;;;;16.06;71.50;99417.25;5114956;28;20108;-93
2021/10/01 01:17:41;;;;;;;13.07;5.63;;;;;;;16.06;71.13;99418.09;5117836;28;20032;-92
2021/10/01 01:20:11;;;;;;;14.30;6.20;;;;;;;16.07;71.60;99419.88;5118053;28;20039;-91
2021/10/01 01:22:46;;;;;;;10.73;5.57;;;;;;;15.94;71.73;99410.53;5117856;28;20050;-92
2021/10/01 01:25:39;;;;;;;10.80;6.10;;;;;;;15.87;71.86;99415.25;5117721;28;20070;-93
2021/10/01 01:28:10;;;;;;;15.98;6.47;;;;;;;15.89;72.19;99423.25;5126012;28;20050;-93
2021/10/01 01:30:39;;;;;;;12.77;5.85;;;;;;;15.76;71.93;99406.75;5116956;28;20074;-92
2021/10/01 01:33:06;;;;;;;;;;;;;;;15.91;71.62;99419.56;5117627;28;20096;-93
2021/10/01 01:35:34;;;;;;;11.68;5.55;;;;;;;15.76;71.43;99388.84;5106595;28;19983;-94
2021/10/01 01:38:06;;;;;;;11.85;5.18;;;;;;;15.77;71.31;99385.25;5117013;28;20565;-92
2021/10/01 01:40:35;;;;;;;9.40;4.95;;;;;;;15.84;71.07;99401.97;5117330;28;20047;-93
2021/10/01 01:43:04;;;;;;;10.40;5.35;;;;;;;15.80;71.14;99401.22;5116879;28;20044;-92
2021/10/01 01:45:31;;;;;;;11.40;6.38;;;;;;;15.73;71.72;99398.84;5117121;28;20062;-95
2021/10/01 01:47:58;;;;;;;12.55;5.32;;;;;;;15.66;72.03;99398.16;5117977;28;20050;-93
2021/10/01 01:50:26;;;;;;;12.05;5.70;;;;;;;15.59;71.76;99394.84;5117099;28;20054;-93
2021/10/01 01:52:55;;;;;;;12.93;5.60;;;;;;;15.59;72.14;99385.91;5116579;28;20895;-94
2021/10/01 01:55:22;;;;;;;11.33;5.80;;;;;;;15.62;71.86;99396.53;5117590;28;20131;-94
2021/10/01 01:57:51;;;;;;;10.30;5.10;;;;;;;15.45;72.59;99385.56;5118075;28;20290;-93
2021/10/01 02:00:18;;;;;;;9.30;5.10;;;;;;;15.38;72.68;99384.91;5116920;28;20039;-93
2021/10/01 02:02:46;;;;;;;13.02;6.28;;;;;;;15.50;72.46;99402.34;5116902;28;20032;-93
2021/10/01 02:05:12;;;;;;;9.70;5.40;;;;;;;15.44;72.37;99392.75;5116254;28;20043;-94
2021/10/01 02:07:42;;;;;;;20.67;5.43;;;;;;;15.45;72.38;99401.66;5117699;28;20130;-93
2021/10/01 02:10:09;;;;;;;9.63;5.00;;;;;;;15.48;71.84;99394.34;5117173;28;20047;-93
2021/10/01 02:12:36;;;;;;;14.63;5.20;;;;;;;15.68;70.93;99401.66;5116883;28;20039;-92
2021/10/01 02:15:02;;;;;;;9.75;5.20;;;;;;;15.64;70.59;99388.44;5116525;28;20036;-91
2021/10/01 02:17:32;;;;;;;12.80;5.78;;;;;;;15.65;70.18;99382.13;5116699;28;20040;-94
2021/10/01 02:19:59;;;;;;;10.48;4.80;;;;;;;15.71;69.57;99385.47;5118091;28;20036;-93
2021/10/01 02:22:27;;;;;;;11.45;4.80;;;;;;;15.66;69.64;99382.06;5117207;28;20082;-92
2021/10/01 02:24:55;;;;;;;10.87;5.07;;;;;;;15.71;69.55;99388.16;5117756;28;20075;-93
2021/10/01 02:27:26;;;;;;;10.32;4.63;;;;;;;15.55;69.68;99362.84;5117269;28;20495;-93
2021/10/01 02:29:57;;;;;;;8.50;4.57;;;;;;;15.46;69.82;99357.81;5116894;28;20378;-94
2021/10/01 02:32:31;;;;;;;8.02;4.68;;;;;;;15.38;69.81;99356.31;5117311;28;20057;-93
2021/10/01 02:34:58;;;;;;;12.05;4.40;;;;;;;15.52;69.48;99373.66;5116824;28;20043;-92
2021/10/01 02:37:24;;;;;;;9.20;4.80;;;;;;;15.56;69.87;99380.66;5117032;28;20497;-94
2021/10/01 02:39:51;;;;;;;8.50;4.63;;;;;;;15.54;69.51;99388.75;5118636;28;20078;-92
2021/10/01 02:42:20;;;;;;;8.95;4.80;;;;;;;15.36;70.17;99350.13;5118334;28;20046;-93
2021/10/01 02:44:47;;;;;;;9.20;4.85;;;;;;;15.39;69.73;99360.72;5117544;28;20051;-91
2021/10/01 02:47:14;;;;;;;7.90;4.47;;;;;;;15.47;69.05;99359.56;5116637;28;20048;-92
2021/10/01 02:49:42;;;;;;;10.05;4.85;;;;;;;15.55;68.56;99385.16;5116822;28;20043;-94
2021/10/01 02:52:15;;;;;;;8.73;4.32;;;;;;;15.56;68.14;99375.31;5116354;28;20047;-93
2021/10/01 02:54:48;;;;;;;8.95;4.85;;;;;;;15.64;67.56;99383.06;5116380;28;20040;-92
2021/10/01 02:57:18;;;;;;;10.40;4.38;;;;;;;15.60;67.61;99377.81;5115948;28;20098;-92
2021/10/01 02:59:48;;;;;;;10.98;4.57;;;;;;;15.51;67.73;99375.47;5113358;28;20044;-94
2021/10/01 03:02:16;;;;;;;7.85;4.40;;;;;;;15.52;67.51;99385.25;5114185;28;20381;-93
2021/10/01 03:04:46;;;;;;;9.30;4.20;;;;;;;15.55;67.31;99376.25;5115811;28;20079;-92
2021/10/01 03:07:14;;;;;;;7.15;4.20;;;;;;;15.65;66.20;99372.28;5115793;28;20517;-93
2021/10/01 03:09:41;;;;;;;8.98;4.15;;;;;;;15.76;66.00;99394.22;5115844;28;20138;-91
2021/10/01 03:12:09;;;;;;;9.50;4.05;;;;;;;15.70;65.49;99369.41;5115978;28;20043;-93
2021/10/01 03:14:36;;;;;;;8.52;4.32;;;;;;;15.69;65.38;99373.91;5116049;28;20040;-93
2021/10/01 03:17:05;;;;;;;8.13;4.30;;;;;;;15.73;65.55;99386.28;5116506;28;20405;-94
2021/10/01 03:19:34;;;;;;;8.82;4.20;;;;;;;15.70;65.54;99373.00;5115476;28;20039;-92
2021/10/01 03:22:00;;;;;;;9.60;3.80;;;;;;;15.67;65.83;99373.09;5115978;28;20048;-92
2021/10/01 03:24:26;;;;;;;8.00;4.13;;;;;;;15.64;65.32;99365.16;5115635;28;20389;-91
2021/10/01 03:26:54;;;;;;;6.72;4.10;;;;;;;15.53;65.35;99356.66;5115020;28;20082;-94
2021/10/01 03:29:20;;;;;;;8.27;3.92;;;;;;;15.60;65.37;99360.84;5117046;28;20130;-94
2021/10/01 03:31:47;;;;;;;6.18;3.38;;;;;;;15.66;65.12;99376.72;5115300;28;20047;-92
2021/10/01 03:34:17;;;;;;;7.93;3.65;;;;;;;15.61;64.79;99359.91;5114984;28;20443;-93
2021/10/01 03:36:43;;;;;;;8.52;3.80;;;;;;;15.59;64.99;99364.47;5116186;28;20564;-92
2021/10/01 03:39:09;;;;;;;6.00;3.80;;;;;;;15.57;65.01;99360.97;5115591;28;20044;-92
2021/10/01 03:41:36;;;;;;;9.85;3.75;;;;;;;15.61;65.17;99378.69;5115023;28;20048;-91
2021/10/01 03:44:03;;;;;;;8.30;3.80;;;;;;;15.53;64.99;99372.75;5115762;28;20039;-93
2021/10/01 03:46:29;;;;;;;6.80;3.50;;;;;;;15.48;65.33;99372.91;5114603;28;20035;-94
2021/10/01 03:48:55;;;;;;;8.27;3.92;;;;;;;15.48;65.59;99374.72;5115177;28;20511;-93
2021/10/01 03:51:23;;;;;;;7.15;3.88;;;;;;;15.41;66.18;99382.09;5115417;28;20039;-93
2021/10/01 03:53:50;;;;;;;9.17;4.77;;;;;;;15.27;66.33;99376.41;5115643;28;20058;-92
2021/10/01 03:56:16;;;;;;;10.38;3.40;;;;;;;15.22;66.09;99376.53;5114809;28;20039;-94
2021/10/01 03:58:43;;;;;;;6.15;3.53;;;;;;;15.23;66.08;99375.63;5115221;28;20039;-92
2021/10/01 04:01:12;;;;;;;10.02;4.60;;;;;;;15.23;65.94;99369.41;5115187;28;20043;-92
2021/10/01 04:03:38;;;;;;;8.00;3.97;;;;;;;15.14;66.02;99367.94;5115271;28;20067;-95
2021/10/01 04:06:05;;;;;;;8.57;3.72;;;;;;;15.23;65.70;99375.63;5115480;28;20490;-94
2021/10/01 04:08:32;;;;;;;9.45;3.83;;;;;;;15.12;65.29;99359.06;5115522;28;20043;-93
2021/10/01 04:10:58;;;;;;;5.57;3.50;;;;;;;15.19;65.49;99366.81;5115531;28;20036;-94
2021/10/01 04:13:25;;;;;;;8.20;3.80;;;;;;;15.23;65.48;99375.63;5115179;28;20073;-94
2021/10/01 04:15:51;;;;;;;6.07;3.20;;;;;;;15.16;64.75;99356.22;5114479;28;20105;-94
2021/10/01 04:18:17;;;;;;;7.07;4.10;;;;;;;15.32;64.52;99377.09;5116201;28;20044;-94
2021/10/01 04:20:45;;;;;;;7.25;3.53;;;;;;;15.43;64.03;99384.75;5115485;28;20047;-95
2021/10/01 04:23:12;;;;;;;5.53;3.35;;;;;;;15.37;63.99;99362.56;5115406;28;20389;-94
2021/10/01 04:25:39;;;;;;;6.15;3.65;;;;;;;15.29;63.75;99361.13;5114463;28;20450;-91
2021/10/01 04:28:06;;;;;;;7.93;3.53;;;;;;;15.36;64.01;99382.28;5114653;28;20046;-92
2021/10/01 04:30:34;;;;;;;6.75;3.47;;;;;;;15.30;64.36;99374.47;5113944;28;20052;-93
2021/10/01 04:33:03;;;;;;;6.75;3.45;;;;;;;15.13;65.18;99358.13;5115286;28;20489;-93
2021/10/01 04:35:29;;;;;;;6.60;3.90;;;;;;;15.16;65.52;99374.13;5114492;28;20047;-92
2021/10/01 04:37:55;;;;;;;6.82;3.63;;;;;;;15.07;65.27;99361.03;5115229;28;20050;-92
2021/10/01 04:40:20;;;;;;;7.72;3.50;;;;;;;15.06;65.53;99367.31;5118693;28;20484;-91
2021/10/01 04:42:48;;;;;;;6.68;3.50;;;;;;;14.97;65.52;99356.00;5118216;28;20109;-91
2021/10/01 04:45:14;;;;;;;6.43;3.70;;;;;;;15.03;65.21;99365.63;5118202;28;20096;-92
2021/10/01 04:47:40;;;;;;;7.25;3.15;;;;;;;15.10;64.96;99366.28;5118450;28;20044;-94
2021/10/01 04:50:06;;;;;;;7.97;3.75;;;;;;;15.06;65.03;99365.50;5118242;28;20071;-94
2021/10/01 04:52:32;;;;;;;6.88;3.78;;;;;;;15.13;64.80;99368.84;5118580;28;20044;-94
2021/10/01 04:54:59;;;;;;;6.90;3.58;;;;;;;15.10;64.58;99361.81;5118503;28;20100;-93
2021/10/01 04:57:25;;;;;;;5.40;3.28;;;;;;;15.28;64.45;99391.53;5118964;28;20097;-94
2021/10/01 04:59:52;;;;;;;6.68;3.22;;;;;;;15.15;64.29;99369.66;5118664;28;20039;-95
2021/10/01 05:02:18;;;;;;;5.85;3.15;;;;;;;15.17;64.81;99383.88;5118576;28;20397;-94
2021/10/01 05:04:44;;;;;;;4.63;2.70;;;;;;;15.16;64.69;99382.16;5118388;28;20039;-93
2021/10/01 05:07:12;;;;;;;6.68;3.20;;;;;;;15.10;64.93;99382.38;5118460;28;20501;-93
2021/10/01 05:09:38;;;;;;;5.80;3.20;;;;;;;15.10;64.80;99391.25;5119180;28;20044;-94
2021/10/01 05:12:04;;;;;;;7.53;3.17;;;;;;;15.04;65.24;99390.63;5118475;28;20042;-94
2021/10/01 05:14:30;;;;;;;7.22;3.33;;;;;;;15.00;64.91;99381.81;5117185;28;20086;-93
2021/10/01 05:16:59;;;;;;;6.72;3.05;;;;;;;15.08;64.44;99386.91;5118058;28;20079;-94
2021/10/01 05:19:25;;;;;;;6.25;3.42;;;;;;;15.03;64.37;99372.78;5118507;28;20374;-93
2021/10/01 05:21:50;;;;;;;5.60;3.30;;;;;;;15.15;64.14;99396.47;5117511;28;20057;-93
2021/10/01 05:24:16;;;;;;;6.18;3.25;;;;;;;15.16;64.35;99398.22;5116777;28;20044;-93
2021/10/01 05:26:43;;;;;;;7.15;3.22;;;;;;;15.11;64.27;99394.81;5117009;28;20559;-93
2021/10/01 05:29:08;;;;;;;5.80;2.88;;;;;;;15.08;64.34;99389.56;5116570;28;20046;-93
2021/10/01 05:31:36;;;;;;;7.90;3.20;;;;;;;15.03;64.48;99387.06;5118019;28;20036;-94
2021/10/01 05:34:04;;;;;;;6.30;3.45;;;;;;;15.05;64.35;99384.31;5117197;28;20040;-92
2021/10/01 05:36:30;;;;;;;6.93;3.17;;;;;;;15.15;64.27;99401.81;5116908;28;20047;-95
2021/10/01 05:38:56;;;;;;;6.50;3.13;;;;;;;15.08;64.13;99382.41;5117124;28;20071;-95
2021/10/01 05:41:22;;;;;;;4.72;2.80;;;;;;;15.10;64.15;99383.22;5116881;28;20032;-94
2021/10/01 05:43:48;;;;;;;6.22;3.15;;;;;;;15.17;64.07;99394.59;5117740;28;20040;-94
2021/10/01 05:46:14;;;;;;;6.75;3.00;;;;;;;15.29;64.36;99415.59;5117688;28;20492;-94
2021/10/01 05:48:43;;;;;;;6.50;3.05;;;;;;;15.28;64.17;99408.47;5118470;28;20067;-94
2021/10/01 05:51:12;;;;;;;;;;;;;;;15.33;64.34;99422.59;5117700;28;20528;-93
2021/10/01 05:56:43;;;;;;;5.55;2.65;;;;;;;15.33;64.09;99400.28;5092329;27;20363;-93
2021/10/01 05:59:10;;;;;;;6.70;3.03;;;;;;;15.41;63.95;99415.13;5092237;28;20079;-93
2021/10/01 06:01:36;;;;;;;6.20;3.05;;;;;;;15.40;64.26;99410.72;5092824;28;20044;-95
2021/10/01 06:04:02;;;;;;;7.43;2.92;;;;;;;15.40;64.27;99413.41;5092621;28;20098;-95
2021/10/01 06:06:28;;;;;;;6.13;2.95;;;;;;;15.42;64.28;99418.72;5093090;28;20043;-92
2021/10/01 06:08:54;;;;;;;10.13;3.47;;;;;;;15.61;63.74;99438.56;5093266;28;20486;-92
2021/10/01 06:11:21;;;;;;;5.78;2.72;;;;;;;15.60;63.34;99419.84;5093165;28;20051;-92
2021/10/01 06:13:49;;;;;;;5.20;2.90;;;;;;;15.61;62.94;99403.69;5095279;28;20085;-93
2021/10/01 06:16:15;;;;;;;3.78;2.53;;;;;;;15.80;62.65;99432.53;5101985;28;20127;-93
2021/10/01 06:18:41;;;;;;;6.95;2.83;;;;;;;15.75;62.86;99413.06;5092712;28;20071;-94
2021/10/01 06:21:08;;;;;;;5.25;2.90;;;;;;;15.89;63.30;99439.34;5093513;28;20111;-92
2021/10/01 06:23:34;;;;;;;5.82;2.97;;;;;;;15.86;62.76;99431.44;5093569;28;20140;-91
2021/10/01 06:26:02;;;;;;;6.03;3.17;;;;;;;15.93;63.19;99435.63;5091897;28;20390;-94
2021/10/01 06:28:34;;;;;;;4.68;2.67;;;;;;;15.92;62.87;99442.78;5092234;28;20067;-93
2021/10/01 06:31:02;;;;;;;8.40;2.80;;;;;;;15.87;63.16;99417.06;5092335;28;20116;-91
2021/10/01 06:33:28;;;;;;;6.85;3.42;;;;;;;15.87;63.03;99417.06;5092014;28;20095;-94
2021/10/01 06:35:57;;;;;;;5.32;2.75;;;;;;;15.91;63.15;99418.69;5091523;28;20048;-91
2021/10/01 06:38:24;;;;;;;5.40;2.80;;;;;;;15.84;63.42;99418.06;5090446;28;20045;-91
2021/10/01 06:40:49;;;;;;;8.52;3.40;;;;;;;15.87;63.79;99419.75;5090951;28;20405;-92
2021/10/01 06:43:17;;;;;;;6.60;3.17;;;;;;;15.96;63.60;99433.69;5090103;28;20041;-92
2021/10/01 06:45:46;;;;;;;5.65;3.20;;;;;;;16.05;63.55;99436.94;5087159;28;20037;-91
2021/10/01 08:22:00;;;;;;;5.28;2.65;;;;;;;19.40;52.09;99433.38;5131879;27;20289;-93
2021/10/01 08:24:31;;;;;;;4.85;2.92;;;;;;;19.68;50.62;99440.88;5132092;28;20055;-95
2021/10/01 08:26:58;;;;;;;5.22;3.10;;;;;;;19.67;50.66;99432.91;5132338;28;20114;-92
2021/10/01 08:29:24;;;;;;;6.07;2.47;;;;;;;19.71;49.82;99437.19;5132674;28;20436;-93
2021/10/01 08:31:50;;;;;;;5.47;2.60;;;;;;;19.64;50.45;99433.03;5130492;27;20047;-91
2021/10/01 08:34:16;;;;;;;4.35;2.30;;;;;;;19.98;49.41;99433.97;5132360;28;20035;-91
2021/10/01 08:36:43;;;;;;;5.20;2.85;;;;;;;19.87;50.09;99439.94;5131801;28;20058;-89
2021/10/01 08:39:13;;;;;;;5.35;2.53;;;;;;;20.10;49.12;99444.94;5131462;28;20039;-92
2021/10/01 08:41:40;;;;;;;5.03;2.50;;;;;;;20.04;49.58;99422.81;5132572;28;20035;-91
2021/10/01 08:44:06;;;;;;;4.80;2.58;;;;;;;20.54;49.51;99451.50;5131981;28;20043;-93
2021/10/01 08:46:32;;;;;;;6.45;3.20;;;;;;;20.52;47.98;99423.69;5132115;28;20126;-91
2021/10/01 08:49:00;;;;;;;5.15;3.20;;;;;;;20.40;49.14;99429.78;5131365;28;20500;-92
2021/10/01 08:51:27;;;;;;;5.53;2.90;;;;;;;20.53;47.94;99425.44;5129710;28;20035;-92
2021/10/01 08:53:53;;;;;;;4.15;2.60;;;;;;;20.57;47.40;99415.31;5131381;28;20512;-91
2021/10/01 08:56:24;;;;;;;3.92;2.75;;;;;;;20.55;48.40;99406.44;5131493;28;20039;-92
2021/10/01 08:58:50;;;;;;;3.95;2.40;;;;;;;20.72;48.05;99419.88;5132531;28;20039;-92
2021/10/01 09:01:16;;;;;;;5.32;2.45;;;;;;;20.76;48.66;99407.06;5130985;28;20507;-92
2021/10/01 09:03:42;;;;;;;3.80;2.40;;;;;;;21.05;47.08;99406.16;5132502;28;20077;-93
2021/10/01 09:06:08;;;;;;;5.35;2.50;;;;;;;21.06;47.98;99405.22;5130568;28;20069;-93
2021/10/01 09:08:48;;;;;;;5.20;2.58;;;;;;;21.13;46.60;99398.47;5128691;28;20463;-92
2021/10/01 09:11:14;;;;;;;5.35;2.47;;;;;;;21.20;46.52;99400.81;5130169;28;20039;-92
2021/10/01 09:13:43;;;;;;;5.03;3.03;;;;;;;21.28;46.10;99406.63;5131134;28;20395;-94
2021/10/01 09:16:11;;;;;;;5.63;3.20;;;;;;;21.53;45.96;99411.41;5131733;28;20450;-90
2021/10/01 09:18:40;;;;;;;5.90;2.67;;;;;;;21.64;44.16;99391.81;5130861;28;20059;-93
2021/10/01 09:21:06;;;;;;;;;;;;;;;21.39;45.25;99412.25;5132554;28;20134;-93
2021/10/01 09:23:39;;;;;;;5.68;2.28;;;;;;;21.32;45.05;99397.38;5131059;28;19923;-91
2021/10/01 09:26:07;;;;;;;4.90;2.47;;;;;;;21.58;44.59;99395.78;5130742;28;20043;-93
2021/10/01 09:28:53;;;;;;;3.50;2.35;;;;;;;21.44;43.80;99385.81;5130473;28;20071;-92
2021/10/01 09:31:40;;;;;;;5.30;2.65;;;;;;;21.62;45.49;99407.28;5125603;28;20051;-91
2021/10/01 09:34:32;;;;;;;4.80;2.35;;;;;;;21.09;44.34;99401.47;5119103;28;20127;-92
2021/10/01 09:36:59;;;;;;;4.13;2.50;;;;;;;21.40;44.42;99402.28;5115708;28;20101;-93
2021/10/01 09:39:27;;;;;;;4.60;2.42;;;;;;;21.64;43.32;99405.34;5116287;28;20058;-92
2021/10/01 09:41:53;;;;;;;5.33;2.60;;;;;;;21.44;44.16;99393.06;5116838;28;20032;-91
2021/10/01 09:44:21;;;;;;;3.72;2.30;;;;;;;21.76;43.96;99380.22;5116406;28;20035;-91
2021/10/01 09:46:49;;;;;;;3.78;2.33;;;;;;;22.04;42.37;99400.13;5111833;28;20069;-92
2021/10/01 09:49:27;;;;;;;4.27;2.40;;;;;;;21.69;42.57;99387.00;5116923;28;20378;-91
2021/10/01 09:51:54;;;;;;;;;;;;;;;21.90;42.44;99399.19;5116523;28;20058;-92
2021/10/01 09:54:21;;;;;;;5.55;2.20;;;;;;;22.09;40.79;99387.16;5117695;28;20364;-92
2021/10/01 09:56:48;;;;;;;4.05;2.10;;;;;;;22.08;42.01;99388.13;5117242;28;20043;-91
2021/10/01 09:59:16;;;;;;;3.20;2.28;;;;;;;22.12;40.42;99392.34;5117542;28;20043;-90
2021/10/01 10:02:10;;;;;;;5.10;2.33;;;;;;;21.88;40.54;99390.28;5115180;28;20377;-94
2021/10/01 10:04:44;;;;;;;4.28;2.30;;;;;;;22.20;39.92;99390.03;5114919;27;20276;-92
2021/10/01 10:07:13;;;;;;;6.03;2.50;;;;;;;22.19;39.61;99380.16;5116441;28;20105;-92
2021/10/01 10:09:43;;;;;;;3.33;2.25;;;;;;;22.11;39.72;99382.50;5116462;28;20354;-92
2021/10/01 10:12:12;;;;;;;3.88;2.15;;;;;;;22.24;39.57;99372.63;5116494;28;20031;-93
2021/10/01 10:14:41;;;;;;;;;;;;;;;22.54;40.06;99375.16;5116377;28;20104;-93
2021/10/01 10:17:16;;;;;;;4.97;2.50;;;;;;;21.96;39.29;99376.22;5115272;28;19919;-92
2021/10/01 10:19:43;;;;;;;4.45;2.83;;;;;;;22.21;38.99;99367.41;5116186;28;20516;-91
2021/10/01 10:22:09;;;;;;;6.85;4.05;;;;;;;22.33;39.25;99352.19;5115838;28;20038;-92
2021/10/01 10:24:34;;;;;;;5.68;2.97;;;;;;;22.38;38.31;99349.16;5116024;28;20119;-92
2021/10/01 10:27:00;;;;;;;4.35;2.53;;;;;;;22.51;40.13;99363.63;5115180;28;20527;-91
2021/10/01 10:29:26;;;;;;;4.18;2.40;;;;;;;22.42;38.12;99353.41;5115494;28;20054;-93
2021/10/01 10:31:53;;;;;;;3.83;2.33;;;;;;;22.40;37.82;99350.81;5115062;28;20377;-92
2021/10/01 10:34:23;;;;;;;3.63;2.10;;;;;;;22.62;38.91;99342.13;5117296;28;20042;-92
2021/10/01 10:36:58;;;;;;;5.30;2.58;;;;;;;22.72;37.73;99343.22;5116128;28;20837;-93
2021/10/01 10:39:39;;;;;;;4.75;2.40;;;;;;;22.58;36.52;99347.88;5115608;28;20536;-93
2021/10/01 10:42:09;;;;;;;5.20;2.60;;;;;;;22.48;37.23;99336.75;5116080;28;20118;-91
2021/10/01 10:44:44;;;;;;;4.82;2.53;;;;;;;22.62;36.74;99331.28;5111450;28;20521;-93
2021/10/01 10:47:11;;;;;;;5.30;2.88;;;;;;;22.72;37.21;99337.78;5116866;28;20048;-92
2021/10/01 10:49:38;;;;;;;5.55;2.70;;;;;;;22.61;37.05;99328.66;5115820;28;20036;-93
2021/10/01 10:55:13;;;;;;;5.45;2.80;;;;;;;22.70;37.27;99334.31;5091285;27;20401;-93
2021/10/01 10:57:45;;;;;;;5.68;3.10;;;;;;;22.55;35.97;99328.13;5092129;28;20482;-92
2021/10/01 11:00:28;;;;;;;5.80;3.00;;;;;;;22.49;37.27;99324.97;5091794;28;20044;-91
2021/10/01 11:03:17;;;;;;;4.75;2.67;;;;;;;22.61;36.72;99324.09;5089706;28;20040;-92
2021/10/01 11:05:45;;;;;;;4.53;2.97;;;;;;;22.70;37.10;99318.03;5091047;28;20040;-93
2021/10/01 11:08:22;;;;;;;6.65;2.97;;;;;;;22.95;36.79;99319.09;5092448;28;20036;-92
2021/10/01 11:10:50;;;;;;;5.57;2.80;;;;;;;22.96;36.59;99310.81;5091196;28;20063;-92
2021/10/01 11:13:32;;;;;;;6.45;3.10;;;;;;;22.86;37.41;99306.19;5090803;28;20098;-92
2021/10/01 11:16:18;;;;;;;9.40;3.20;;;;;;;22.73;37.11;99292.59;5091009;28;20127;-94
2021/10/01 11:19:04;;;;;;;4.88;2.90;;;;;;;22.97;36.59;99315.28;5092714;28;20116;-93
2021/10/01 11:21:33;;;;;;;4.95;3.08;;;;;;;22.81;37.17;99286.63;5089968;28;20088;-94
2021/10/01 11:24:01;;;;;;;6.63;3.70;;;;;;;22.93;36.29;99302.91;5091088;28;20048;-94
2021/10/01 11:26:31;;;;;;;6.50;3.38;;;;;;;23.00;38.95;99302.50;5088559;28;20085;-91
2021/10/01 11:28:57;;;;;;;5.90;3.47;;;;;;;22.91;36.48;99279.59;5092153;28;20453;-94
2021/10/01 11:31:34;;;;;;;5.70;3.20;;;;;;;23.09;36.52;99274.75;5091785;28;20063;-96
2021/10/01 11:33:59;;;;;;;6.35;3.30;;;;;;;23.27;37.92;99278.88;5092224;28;20470;-92
2021/10/01 11:36:29;;;;;;;5.63;3.33;;;;;;;23.18;35.37;99265.94;5094536;28;20055;-95
2021/10/01 11:39:03;;;;;;;6.35;3.70;;;;;;;23.30;37.19;99272.34;5094251;28;20570;-93
2021/10/01 11:41:31;;;;;;;6.53;4.05;;;;;;;23.35;35.72;99260.19;5093550;28;20036;-92
2021/10/01 11:44:00;;;;;;;6.23;4.07;;;;;;;23.36;36.17;99255.63;5092865;28;20498;-92
2021/10/01 11:46:32;;;;;;;8.23;4.53;;;;;;;23.29;36.72;99248.91;5092433;28;20063;-94
2021/10/01 11:49:02;;;;;;;7.43;4.50;;;;;;;23.32;36.93;99248.69;5092527;28;20482;-96
2021/10/01 11:51:29;;;;;;;7.13;3.80;;;;;;;23.35;36.74;99262.03;5092576;28;20090;-94
2021/10/01 11:54:13;;;;;;;6.07;3.55;;;;;;;23.20;36.29;99255.84;5093345;28;20120;-94
2021/10/01 11:56:41;;;;;;;6.63;4.10;;;;;;;23.25;37.23;99247.38;5095328;28;20051;-94
2021/10/01 11:59:14;;;;;;;7.13;3.70;;;;;;;22.97;37.36;99238.47;5093367;28;20036;-93
2021/10/01 12:01:40;;;;;;;6.90;4.57;;;;;;;23.17;37.08;99240.66;5089008;28;20036;-95
2021/10/01 12:04:06;;;;;;;6.43;3.70;;;;;;;23.15;37.53;99223.63;5100701;28;20090;-94
2021/10/01 12:06:35;;;;;;;9.18;4.50;;;;;;;23.29;37.54;99221.75;5084073;28;20036;-96
2021/10/01 12:09:04;;;;;;;6.75;3.70;;;;;;;23.37;36.56;99220.22;5082563;28;20044;-94
2021/10/01 12:11:32;;;;;;;6.07;3.90;;;;;;;23.50;36.57;99227.47;5083009;28;20040;-94
2021/10/01 12:14:10;;;;;;;6.47;3.75;;;;;;;23.38;36.66;99221.97;5079341;28;20040;-94
2021/10/01 12:16:38;;;;;;;6.47;3.67;;;;;;;23.19;37.57;99207.16;5073995;28;20075;-96
2021/10/01 12:19:05;;;;;;;5.28;3.58;;;;;;;23.25;37.23;99215.72;5078277;28;20037;-94
2021/10/01 12:21:35;;;;;;;6.82;3.72;;;;;;;23.37;37.02;99213.94;5078966;28;20041;-92
2021/10/01 12:24:06;;;;;;;8.05;4.40;;;;;;;23.44;38.02;99198.94;5077969;28;20110;-95
2021/10/01 12:26:34;;;;;;;6.78;3.30;;;;;;;23.67;36.40;99212.69;5075301;28;20221;-92
2021/10/01 12:29:09;;;;;;;5.40;3.23;;;;;;;23.61;36.57;99211.28;5070915;28;20055;-96
2021/10/01 12:31:43;;;;;;;6.65;3.47;;;;;;;23.44;36.97;99200.78;5077159;28;20045;-94
2021/10/01 12:34:15;;;;;;;6.50;3.22;;;;;;;23.41;36.61;99182.88;5075264;28;20068;-92
2021/10/01 12:36:42;;;;;;;5.05;3.13;;;;;;;23.56;37.19;99180.88;5076414;28;20048;-95
2021/10/01 12:39:09;;;;;;;5.90;3.38;;;;;;;23.49;36.29;99168.75;5077436;28;20387;-95
2021/10/01 12:41:35;;;;;;;5.55;3.17;;;;;;;23.63;35.88;99176.72;5077833;28;20050;-94
2021/10/01 12:44:03;;;;;;;5.80;3.45;;;;;;;23.32;36.69;99157.28;5077089;28;20131;-94
2021/10/01 12:46:44;;;;;;;5.78;3.60;;;;;;;23.47;36.80;99187.88;5076578;28;20055;-93
2021/10/01 12:49:26;;;;;;;7.20;3.63;;;;;;;23.30;36.87;99172.81;5076454;28;20160;-94
2021/10/01 12:52:19;;;;;;;6.22;3.30;;;;;;;23.54;38.02;99181.00;5074665;28;20064;-95
2021/10/01 12:54:55;;;;;;;5.97;3.53;;;;;;;23.49;36.91;99147.91;5076847;28;20122;-95
2021/10/01 12:57:31;;;;;;;5.40;3.17;;;;;;;23.61;37.03;99165.13;5077844;28;20044;-94
2021/10/01 12:59:59;;;;;;;6.13;3.97;;;;;;;23.66;36.92;99159.34;5076249;28;20043;-94
2021/10/01 13:02:39;;;;;;;7.13;3.80;;;;;;;23.52;37.46;99152.22;5076367;28;20052;-94
2021/10/01 13:05:06;;;;;;;6.68;3.65;;;;;;;23.58;36.82;99151.78;5072760;28;20123;-92
2021/10/01 13:07:38;;;;;;;6.20;3.80;;;;;;;23.63;36.92;99146.00;5078322;28;20048;-95
2021/10/01 13:10:17;;;;;;;5.95;3.67;;;;;;;23.67;37.51;99142.09;5075955;28;20044;-93
2021/10/01 13:12:49;;;;;;;7.82;4.00;;;;;;;23.86;36.76;99149.75;5075968;28;20059;-95
2021/10/01 13:15:20;;;;;;;7.45;3.70;;;;;;;23.86;36.46;99152.47;5075548;28;20502;-92
2021/10/01 13:18:07;;;;;;;6.93;3.60;;;;;;;23.84;37.15;99151.72;5074088;28;20045;-94
2021/10/01 13:20:36;;;;;;;9.13;3.80;;;;;;;23.83;36.18;99125.50;5075867;28;20068;-94